Time;durP1;ratioP1;P1;durP2;ratioP2;P2;SDS_P1;SDS_P2;PMS_P1;PMS_P2;Temp;Humidity;BMP_temperature;BMP_pressure;BME280_temperature;BME280_humidity;BME280_pressure;Samples;Min_cycle;Max_cycle;Signal;HPM_P1;HPM_P2
2023/11/10 00:01:16;;;;;;;8.70;5.82;;;;;;;;;;2075195;28;20042;-80
2023/11/10 00:02:39;;;;;;;8.65;6.30;;;;;;;;;;2079886;28;20502;-80
2023/11/10 00:03:58;;;;;;;6.72;6.15;;;;;;;;;;2079684;28;20025;-80
2023/11/10 00:05:17;;;;;;;7.30;6.03;;;;;;;;;;2079623;28;20018;-80
2023/11/10 00:06:36;;;;;;;7.05;6.35;;;;;;;;;;2078392;28;20029;-80
2023/11/10 00:07:56;;;;;;;7.50;6.55;;;;;;;;;;2080562;28;20029;-80
2023/11/10 00:09:16;;;;;;;6.88;6.18;;;;;;;;;;2080215;28;20030;-80
2023/11/10 00:10:35;;;;;;;8.05;7.00;;;;;;;;;;2079371;28;20033;-80
2023/11/10 00:11:56;;;;;;;7.35;6.65;;;;;;;;;;2079710;28;20518;-79
2023/11/10 00:13:15;;;;;;;7.50;6.43;;;;;;;;;;2081281;28;20448;-78
2023/11/10 00:14:35;;;;;;;6.78;6.28;;;;;;;;;;2079676;28;20153;-77
2023/11/10 00:15:55;;;;;;;7.82;7.03;;;;;;;;;;2079603;28;20033;-78
2023/11/10 00:17:14;;;;;;;7.55;6.80;;;;;;;;;;2080558;28;20033;-78
2023/11/10 00:18:33;;;;;;;7.68;6.93;;;;;;;;;;2079944;28;20822;-76
2023/11/10 00:19:52;;;;;;;7.40;6.63;;;;;;;;;;2080761;28;20021;-77
2023/11/10 00:21:19;;;;;;;7.82;6.97;;;;;;;;;;2073483;28;20018;-77
2023/11/10 00:22:39;;;;;;;7.55;6.72;;;;;;;;;;2078069;28;20033;-78
2023/11/10 00:23:58;;;;;;;6.93;6.43;;;;;;;;;;2080778;28;20022;-77
2023/11/10 00:25:17;;;;;;;8.90;7.00;;;;;;;;;;2080812;28;20030;-78
2023/11/10 00:26:37;;;;;;;7.10;6.60;;;;;;;;;;2080709;28;20033;-77
2023/11/10 00:27:56;;;;;;;7.72;7.03;;;;;;;;;;2079057;28;20030;-77
2023/11/10 00:29:14;;;;;;;7.82;7.20;;;;;;;;;;2077392;28;20025;-77
2023/11/10 00:30:34;;;;;;;10.48;7.40;;;;;;;;;;2079683;28;20041;-78
2023/11/10 00:31:53;;;;;;;7.85;7.07;;;;;;;;;;2079278;28;20025;-78
2023/11/10 00:33:12;;;;;;;8.30;7.10;;;;;;;;;;2078038;28;20034;-78
2023/11/10 00:34:33;;;;;;;7.57;6.85;;;;;;;;;;2078769;28;20041;-77
2023/11/10 00:35:52;;;;;;;8.18;7.47;;;;;;;;;;2077538;28;20029;-77
2023/11/10 00:37:11;;;;;;;10.05;6.88;;;;;;;;;;2077076;28;20026;-77
2023/11/10 00:38:30;;;;;;;7.78;7.10;;;;;;;;;;2079739;28;20029;-78
2023/11/10 00:39:49;;;;;;;7.88;7.18;;;;;;;;;;2077399;28;20524;-77
2023/11/10 00:41:08;;;;;;;8.32;6.88;;;;;;;;;;2079722;28;20478;-77
2023/11/10 00:42:27;;;;;;;7.65;6.82;;;;;;;;;;2079148;28;20584;-78
2023/11/10 00:43:48;;;;;;;8.20;7.05;;;;;;;;;;2078198;28;20049;-77
2023/11/10 00:45:07;;;;;;;7.03;6.32;;;;;;;;;;2075938;28;20030;-77
2023/11/10 00:46:27;;;;;;;9.23;6.80;;;;;;;;;;2084295;28;21770;-77
2023/11/10 00:47:46;;;;;;;7.63;6.90;;;;;;;;;;2082233;28;20553;-77
2023/11/10 00:49:05;;;;;;;8.00;6.55;;;;;;;;;;2078400;28;20026;-77
2023/11/10 00:50:24;;;;;;;7.40;6.43;;;;;;;;;;2080307;28;20033;-77
2023/11/10 00:51:43;;;;;;;7.00;6.30;;;;;;;;;;2077923;28;20078;-77
2023/11/10 00:53:03;;;;;;;7.75;6.93;;;;;;;;;;2079590;28;20037;-77
2023/11/10 00:54:22;;;;;;;8.07;7.05;;;;;;;;;;2077891;28;20034;-78
2023/11/10 00:55:41;;;;;;;7.97;6.57;;;;;;;;;;2078301;28;20030;-77
2023/11/10 00:56:59;;;;;;;7.32;6.63;;;;;;;;;;2078620;28;20037;-77
2023/11/10 00:58:19;;;;;;;9.48;7.32;;;;;;;;;;2078497;28;20037;-78
2023/11/10 00:59:38;;;;;;;9.15;6.78;;;;;;;;;;2080627;28;20021;-78
2023/11/10 01:00:57;;;;;;;7.60;6.80;;;;;;;;;;2078912;28;20454;-78
2023/11/10 01:02:16;;;;;;;7.70;7.05;;;;;;;;;;2077675;28;20022;-77
2023/11/10 01:03:35;;;;;;;7.45;6.82;;;;;;;;;;2079114;28;20116;-77
2023/11/10 01:04:54;;;;;;;8.52;7.45;;;;;;;;;;2076589;28;20060;-78
2023/11/10 01:06:14;;;;;;;10.80;7.68;;;;;;;;;;2074549;28;20101;-77
2023/11/10 01:07:33;;;;;;;8.82;7.82;;;;;;;;;;2078254;28;20107;-78
2023/11/10 01:08:52;;;;;;;8.05;7.40;;;;;;;;;;2074034;28;20590;-77
2023/11/10 01:10:12;;;;;;;8.82;7.82;;;;;;;;;;2077497;28;20041;-78
2023/11/10 01:11:32;;;;;;;8.88;7.30;;;;;;;;;;2075617;28;20037;-78
2023/11/10 01:12:51;;;;;;;9.15;7.45;;;;;;;;;;2078230;28;20038;-78
2023/11/10 01:14:10;;;;;;;7.70;7.10;;;;;;;;;;2078072;28;20084;-78
2023/11/10 01:15:29;;;;;;;8.80;7.63;;;;;;;;;;2073840;28;20108;-77
2023/11/10 01:16:48;;;;;;;11.23;8.23;;;;;;;;;;2072771;28;20034;-78
2023/11/10 01:18:07;;;;;;;10.07;8.05;;;;;;;;;;2079612;28;20022;-77
2023/11/10 01:19:26;;;;;;;13.82;8.07;;;;;;;;;;2077894;28;20057;-78
2023/11/10 01:20:46;;;;;;;8.90;8.10;;;;;;;;;;2076115;28;20393;-78
2023/11/10 01:22:05;;;;;;;8.25;7.50;;;;;;;;;;2078385;28;20038;-77
2023/11/10 01:23:25;;;;;;;9.32;8.05;;;;;;;;;;2079915;28;20029;-77
2023/11/10 01:24:45;;;;;;;11.10;7.78;;;;;;;;;;2076415;28;20209;-78
2023/11/10 01:26:04;;;;;;;9.27;7.82;;;;;;;;;;2077650;28;20025;-77
2023/11/10 01:27:22;;;;;;;8.65;7.88;;;;;;;;;;2076616;28;20034;-77
2023/11/10 01:28:41;;;;;;;8.30;7.55;;;;;;;;;;2076150;28;20029;-77
2023/11/10 01:30:01;;;;;;;15.00;8.23;;;;;;;;;;2075955;28;20025;-77
2023/11/10 01:31:20;;;;;;;8.60;7.78;;;;;;;;;;2074066;28;20057;-78
2023/11/10 01:32:38;;;;;;;8.50;7.70;;;;;;;;;;2082808;28;20028;-77
2023/11/10 01:33:57;;;;;;;8.98;7.90;;;;;;;;;;2080444;28;21285;-77
2023/11/10 01:35:16;;;;;;;9.48;8.57;;;;;;;;;;2078630;28;20026;-77
2023/11/10 01:36:35;;;;;;;8.88;8.02;;;;;;;;;;2080231;28;20662;-77
2023/11/10 01:37:55;;;;;;;9.15;8.15;;;;;;;;;;2078331;28;20030;-78
2023/11/10 01:39:14;;;;;;;9.32;8.40;;;;;;;;;;2077021;28;20026;-78
2023/11/10 01:40:39;;;;;;;8.88;8.07;;;;;;;;;;2078215;28;20049;-78
2023/11/10 01:41:58;;;;;;;10.30;8.43;;;;;;;;;;2079171;28;20104;-77
2023/11/10 01:43:17;;;;;;;10.23;8.38;;;;;;;;;;2077671;28;20502;-77
2023/11/10 01:44:36;;;;;;;9.80;8.80;;;;;;;;;;2079843;28;20029;-77
2023/11/10 01:45:56;;;;;;;9.07;8.20;;;;;;;;;;2079033;28;20041;-78
2023/11/10 01:47:15;;;;;;;9.23;8.30;;;;;;;;;;2079088;28;20053;-77
2023/11/10 01:48:33;;;;;;;9.90;8.90;;;;;;;;;;2077140;28;20029;-77
2023/11/10 01:49:53;;;;;;;9.75;8.85;;;;;;;;;;2076616;28;20026;-77
2023/11/10 01:51:12;;;;;;;9.02;8.13;;;;;;;;;;2075901;28;20033;-77
2023/11/10 01:52:31;;;;;;;11.80;8.73;;;;;;;;;;2074522;28;20033;-76
2023/11/10 01:53:50;;;;;;;11.25;8.73;;;;;;;;;;2075189;28;20030;-77
2023/11/10 01:55:12;;;;;;;9.40;8.50;;;;;;;;;;2074459;28;20029;-76
2023/11/10 01:56:32;;;;;;;11.27;8.73;;;;;;;;;;2077989;28;20029;-77
2023/11/10 01:57:51;;;;;;;10.90;8.43;;;;;;;;;;2078087;28;20025;-77
2023/11/10 01:59:12;;;;;;;10.38;8.52;;;;;;;;;;2076947;28;20029;-77
2023/11/10 02:00:31;;;;;;;9.45;8.50;;;;;;;;;;2075096;28;20025;-77
2023/11/10 02:01:50;;;;;;;10.18;8.38;;;;;;;;;;2075917;28;20030;-77
2023/11/10 02:03:10;;;;;;;9.15;8.25;;;;;;;;;;2075032;28;20022;-76
2023/11/10 02:04:30;;;;;;;9.38;8.48;;;;;;;;;;2076936;28;20506;-76
2023/11/10 02:05:49;;;;;;;9.02;8.23;;;;;;;;;;2076460;28;20426;-77
2023/11/10 02:07:08;;;;;;;8.75;7.95;;;;;;;;;;2074486;28;20390;-77
2023/11/10 02:08:27;;;;;;;10.98;8.13;;;;;;;;;;2077933;28;20494;-78
2023/11/10 02:09:46;;;;;;;10.00;8.20;;;;;;;;;;2078011;28;20170;-78
2023/11/10 02:11:05;;;;;;;8.93;8.02;;;;;;;;;;2075727;28;20189;-78
2023/11/10 02:12:24;;;;;;;9.77;8.50;;;;;;;;;;2075966;28;20033;-77
2023/11/10 02:13:43;;;;;;;8.57;7.80;;;;;;;;;;2075359;28;20033;-77
2023/11/10 02:15:02;;;;;;;9.40;8.10;;;;;;;;;;2074939;28;20033;-78
2023/11/10 02:16:22;;;;;;;9.30;8.27;;;;;;;;;;2076930;28;20033;-77
2023/11/10 02:17:40;;;;;;;9.05;8.20;;;;;;;;;;2071153;28;20054;-79
2023/11/10 02:18:59;;;;;;;9.48;8.50;;;;;;;;;;2077952;28;20032;-77
2023/11/10 02:20:20;;;;;;;9.82;8.82;;;;;;;;;;2076546;28;20105;-78
2023/11/10 02:21:41;;;;;;;9.23;8.32;;;;;;;;;;2078873;28;20119;-77
2023/11/10 02:23:00;;;;;;;9.32;8.43;;;;;;;;;;2076583;28;20029;-78
2023/11/10 02:24:20;;;;;;;11.55;8.90;;;;;;;;;;2079374;28;20402;-77
2023/11/10 02:25:40;;;;;;;11.57;8.35;;;;;;;;;;2080024;28;20045;-78
2023/11/10 02:26:59;;;;;;;9.85;8.80;;;;;;;;;;2077834;28;20033;-78
2023/11/10 02:28:18;;;;;;;9.15;8.25;;;;;;;;;;2078433;28;20029;-78
2023/11/10 02:29:39;;;;;;;10.27;8.77;;;;;;;;;;2077709;28;20441;-77
2023/11/10 02:30:59;;;;;;;11.77;8.57;;;;;;;;;;2074912;28;20033;-77
2023/11/10 02:32:17;;;;;;;9.60;8.70;;;;;;;;;;2076737;28;20057;-78
2023/11/10 02:33:36;;;;;;;13.27;9.13;;;;;;;;;;2075996;28;20167;-78
2023/11/10 02:34:56;;;;;;;10.73;9.07;;;;;;;;;;2077493;28;20046;-78
2023/11/10 02:36:15;;;;;;;11.60;9.55;;;;;;;;;;2077873;28;20018;-77
2023/11/10 02:37:34;;;;;;;9.40;8.43;;;;;;;;;;2077682;28;20043;-78
2023/11/10 02:38:53;;;;;;;10.43;9.38;;;;;;;;;;2075950;28;20462;-78
2023/11/10 02:40:12;;;;;;;14.50;7.95;;;;;;;;;;2079187;28;20053;-78
2023/11/10 02:41:32;;;;;;;8.75;7.88;;;;;;;;;;2079803;28;20030;-78
2023/11/10 02:42:51;;;;;;;9.40;8.55;;;;;;;;;;2079153;28;20105;-78
2023/11/10 02:44:10;;;;;;;11.70;8.55;;;;;;;;;;2076510;28;20034;-77
2023/11/10 02:45:29;;;;;;;9.55;8.65;;;;;;;;;;2073951;28;20026;-77
2023/11/10 02:46:47;;;;;;;14.02;9.57;;;;;;;;;;2075103;28;20037;-78
2023/11/10 02:48:07;;;;;;;9.88;8.77;;;;;;;;;;2079922;28;20394;-78
2023/11/10 02:49:25;;;;;;;16.33;9.63;;;;;;;;;;2084239;28;20081;-78
2023/11/10 02:50:47;;;;;;;11.60;8.63;;;;;;;;;;2081873;28;20041;-78
2023/11/10 02:52:06;;;;;;;9.85;8.82;;;;;;;;;;2085287;28;20018;-77
2023/11/10 02:53:25;;;;;;;11.80;9.38;;;;;;;;;;2085268;28;20018;-78
2023/11/10 02:54:44;;;;;;;11.32;9.20;;;;;;;;;;2078036;28;20029;-78
2023/11/10 02:56:03;;;;;;;10.18;9.15;;;;;;;;;;2078125;28;20030;-77
2023/11/10 02:57:23;;;;;;;10.05;8.77;;;;;;;;;;2077676;28;20017;-77
2023/11/10 02:58:42;;;;;;;11.32;8.65;;;;;;;;;;2079181;28;20522;-77
2023/11/10 03:00:01;;;;;;;12.98;9.18;;;;;;;;;;2082274;28;20053;-78
2023/11/10 03:01:21;;;;;;;14.75;9.25;;;;;;;;;;2085606;28;20037;-77
2023/11/10 03:02:40;;;;;;;12.52;9.45;;;;;;;;;;2087076;28;20089;-78
2023/11/10 03:03:59;;;;;;;12.18;9.77;;;;;;;;;;2085682;28;20029;-77
2023/11/10 03:05:18;;;;;;;15.60;10.00;;;;;;;;;;2080061;28;20033;-78
2023/11/10 03:06:37;;;;;;;13.50;10.02;;;;;;;;;;2080610;28;20128;-77
2023/11/10 03:07:56;;;;;;;15.70;9.52;;;;;;;;;;2075010;28;20026;-77
2023/11/10 03:09:15;;;;;;;13.50;9.50;;;;;;;;;;2076487;28;20029;-78
2023/11/10 03:10:34;;;;;;;14.02;9.60;;;;;;;;;;2079125;28;20034;-78
2023/11/10 03:11:53;;;;;;;14.00;9.82;;;;;;;;;;2079486;28;20029;-78
2023/11/10 03:13:12;;;;;;;12.95;9.90;;;;;;;;;;2079210;28;20030;-77
2023/11/10 03:14:32;;;;;;;11.23;8.68;;;;;;;;;;2077625;28;20038;-78
2023/11/10 03:15:52;;;;;;;14.60;9.55;;;;;;;;;;2072474;28;20057;-77
2023/11/10 03:17:11;;;;;;;12.95;9.50;;;;;;;;;;2079196;28;20510;-78
2023/11/10 03:18:30;;;;;;;16.13;10.25;;;;;;;;;;2075950;28;20041;-78
2023/11/10 03:19:48;;;;;;;14.15;9.60;;;;;;;;;;2074526;28;20109;-78
2023/11/10 03:21:07;;;;;;;12.85;9.30;;;;;;;;;;2077497;28;20058;-77
2023/11/10 03:22:26;;;;;;;12.38;9.00;;;;;;;;;;2079883;28;20021;-77
2023/11/10 03:23:45;;;;;;;11.38;9.00;;;;;;;;;;2079572;28;20030;-77
2023/11/10 03:25:08;;;;;;;11.70;10.30;;;;;;;;;;2079304;28;20029;-77
2023/11/10 03:26:28;;;;;;;15.60;11.45;;;;;;;;;;2087203;28;20025;-77
2023/11/10 03:27:47;;;;;;;11.98;8.55;;;;;;;;;;2076538;28;20030;-77
2023/11/10 03:29:07;;;;;;;13.00;9.20;;;;;;;;;;2077778;28;20148;-77
2023/11/10 03:30:26;;;;;;;14.00;9.60;;;;;;;;;;2080079;28;20053;-77
2023/11/10 03:31:45;;;;;;;10.18;7.90;;;;;;;;;;2074721;28;20029;-77
2023/11/10 03:33:03;;;;;;;10.20;7.25;;;;;;;;;;2077507;28;20533;-78
2023/11/10 03:34:24;;;;;;;10.68;7.85;;;;;;;;;;2075166;28;20060;-77
2023/11/10 03:35:44;;;;;;;7.25;6.65;;;;;;;;;;2078208;28;20033;-78
2023/11/10 03:37:03;;;;;;;6.43;5.82;;;;;;;;;;2077826;28;20037;-77
2023/11/10 03:38:22;;;;;;;9.55;6.80;;;;;;;;;;2079864;28;20037;-77
2023/11/10 03:39:41;;;;;;;8.30;6.38;;;;;;;;;;2078877;28;20041;-77
2023/11/10 03:40:59;;;;;;;6.90;6.30;;;;;;;;;;2075323;28;20025;-77
2023/11/10 03:42:18;;;;;;;7.55;6.85;;;;;;;;;;2074568;28;20561;-77
2023/11/10 03:43:37;;;;;;;8.60;7.07;;;;;;;;;;2080302;28;20029;-77
2023/11/10 03:44:56;;;;;;;7.75;6.93;;;;;;;;;;2076220;28;20022;-77
2023/11/10 03:46:15;;;;;;;7.43;6.72;;;;;;;;;;2081014;28;20030;-78
2023/11/10 03:47:34;;;;;;;7.00;6.25;;;;;;;;;;2080555;28;20109;-77
2023/11/10 03:48:52;;;;;;;7.55;6.60;;;;;;;;;;2081291;28;20462;-77
2023/11/10 03:50:12;;;;;;;9.60;8.00;;;;;;;;;;2079526;28;20152;-78
2023/11/10 03:51:30;;;;;;;9.38;6.90;;;;;;;;;;2077249;28;20566;-77
2023/11/10 03:52:49;;;;;;;8.77;7.50;;;;;;;;;;2077032;28;20021;-78
2023/11/10 03:54:08;;;;;;;7.80;6.85;;;;;;;;;;2073469;28;20018;-78
2023/11/10 03:55:28;;;;;;;6.63;5.97;;;;;;;;;;2072756;28;20492;-78
2023/11/10 03:56:47;;;;;;;7.75;6.90;;;;;;;;;;2077232;28;20507;-77
2023/11/10 03:58:09;;;;;;;8.85;6.75;;;;;;;;;;2077878;28;20482;-77
2023/11/10 03:59:28;;;;;;;9.52;7.05;;;;;;;;;;2080497;28;20475;-78
2023/11/10 04:00:49;;;;;;;8.93;6.57;;;;;;;;;;2079440;28;20029;-78
2023/11/10 04:02:09;;;;;;;6.78;6.13;;;;;;;;;;2080930;28;20243;-77
2023/11/10 04:03:28;;;;;;;8.75;6.38;;;;;;;;;;2080752;28;20045;-78
2023/11/10 04:04:48;;;;;;;7.10;5.68;;;;;;;;;;2079763;28;20025;-78
2023/11/10 04:06:07;;;;;;;7.75;6.28;;;;;;;;;;2079822;28;20029;-78
2023/11/10 04:07:27;;;;;;;8.05;6.03;;;;;;;;;;2077579;28;20022;-78
2023/11/10 04:08:46;;;;;;;7.35;5.55;;;;;;;;;;2076389;28;20033;-78
2023/11/10 04:10:05;;;;;;;5.53;5.05;;;;;;;;;;2077597;28;20026;-78
2023/11/10 04:11:24;;;;;;;5.68;5.18;;;;;;;;;;2077436;28;20096;-78
2023/11/10 04:12:43;;;;;;;6.22;5.30;;;;;;;;;;2078448;28;20026;-78
2023/11/10 04:14:03;;;;;;;6.28;5.53;;;;;;;;;;2078860;28;20026;-78
2023/11/10 04:15:22;;;;;;;5.72;5.13;;;;;;;;;;2078671;28;20029;-78
2023/11/10 04:16:41;;;;;;;6.07;5.40;;;;;;;;;;2078992;28;20053;-77
2023/11/10 04:18:00;;;;;;;5.97;5.47;;;;;;;;;;2078919;28;20487;-77
2023/11/10 04:19:20;;;;;;;6.03;5.43;;;;;;;;;;2075972;28;20026;-77
2023/11/10 04:20:39;;;;;;;6.40;5.80;;;;;;;;;;2073345;28;20030;-77
2023/11/10 04:21:58;;;;;;;6.03;5.40;;;;;;;;;;2078909;28;20025;-78
2023/11/10 04:23:18;;;;;;;6.43;5.65;;;;;;;;;;2080327;28;20014;-78
2023/11/10 04:24:37;;;;;;;6.70;6.10;;;;;;;;;;2077375;28;20029;-77
2023/11/10 04:25:57;;;;;;;6.43;5.93;;;;;;;;;;2074160;28;20450;-77
2023/11/10 04:27:16;;;;;;;6.07;5.57;;;;;;;;;;2072176;28;20433;-78
2023/11/10 04:28:36;;;;;;;6.90;5.75;;;;;;;;;;2079272;28;20029;-78
2023/11/10 04:29:55;;;;;;;6.85;5.78;;;;;;;;;;2078434;28;20502;-78
2023/11/10 04:31:15;;;;;;;6.53;5.93;;;;;;;;;;2078781;28;20034;-78
2023/11/10 04:32:36;;;;;;;6.72;5.95;;;;;;;;;;2076548;28;20030;-78
2023/11/10 04:33:55;;;;;;;7.80;5.43;;;;;;;;;;2076463;28;20026;-78
2023/11/10 04:35:14;;;;;;;6.13;5.63;;;;;;;;;;2078345;28;20034;-79
2023/11/10 04:36:35;;;;;;;6.40;5.80;;;;;;;;;;2075142;28;20025;-78
2023/11/10 04:37:58;;;;;;;6.97;6.32;;;;;;;;;;2082451;28;20030;-78
2023/11/10 04:39:17;;;;;;;6.30;5.70;;;;;;;;;;2084630;28;20044;-77
2023/11/10 04:40:36;;;;;;;6.75;6.15;;;;;;;;;;2078865;28;20034;-77
2023/11/10 04:41:54;;;;;;;6.22;5.70;;;;;;;;;;2077613;28;20037;-77
2023/11/10 04:43:13;;;;;;;6.82;6.22;;;;;;;;;;2078172;28;20038;-77
2023/11/10 04:44:32;;;;;;;7.53;6.38;;;;;;;;;;2075586;28;20057;-78
2023/11/10 04:45:51;;;;;;;7.55;6.78;;;;;;;;;;2076275;28;20170;-77
2023/11/10 04:47:11;;;;;;;7.68;6.88;;;;;;;;;;2079962;28;20041;-78
2023/11/10 04:48:30;;;;;;;6.72;5.90;;;;;;;;;;2080230;28;20105;-77
2023/11/10 04:49:48;;;;;;;6.85;6.15;;;;;;;;;;2080256;28;20105;-77
2023/11/10 04:51:08;;;;;;;8.35;7.53;;;;;;;;;;2077444;28;20153;-77
2023/11/10 04:52:27;;;;;;;7.35;6.53;;;;;;;;;;2075671;28;20499;-77
2023/11/10 04:53:46;;;;;;;11.13;7.90;;;;;;;;;;2075514;28;20037;-77
2023/11/10 04:55:07;;;;;;;7.57;6.93;;;;;;;;;;2072747;28;20034;-77
2023/11/10 04:56:26;;;;;;;7.53;6.82;;;;;;;;;;2076045;28;20037;-77
2023/11/10 04:57:46;;;;;;;6.82;6.32;;;;;;;;;;2076391;28;20029;-77
2023/11/10 04:59:05;;;;;;;7.53;6.82;;;;;;;;;;2077931;28;20026;-78
2023/11/10 05:00:23;;;;;;;8.75;7.22;;;;;;;;;;2078540;28;20022;-77
2023/11/10 05:01:42;;;;;;;8.90;8.02;;;;;;;;;;2076834;28;20026;-77
2023/11/10 05:03:06;;;;;;;9.45;8.52;;;;;;;;;;2079231;28;20478;-78
2023/11/10 05:04:25;;;;;;;11.43;8.30;;;;;;;;;;2080181;28;20021;-77
2023/11/10 05:05:48;;;;;;;11.30;7.57;;;;;;;;;;2080544;28;20061;-77
2023/11/10 05:07:08;;;;;;;9.85;7.50;;;;;;;;;;2079172;28;20029;-77
2023/11/10 05:08:27;;;;;;;8.55;7.15;;;;;;;;;;2073701;28;20430;-77
2023/11/10 05:09:46;;;;;;;8.52;7.78;;;;;;;;;;2076212;28;20030;-77
2023/11/10 05:11:06;;;;;;;8.25;7.55;;;;;;;;;;2077457;28;20026;-77
2023/11/10 05:12:27;;;;;;;10.45;7.70;;;;;;;;;;2077456;28;20076;-78
2023/11/10 05:13:47;;;;;;;8.75;7.88;;;;;;;;;;2078058;28;20068;-77
2023/11/10 05:15:07;;;;;;;11.90;8.00;;;;;;;;;;2076989;28;20041;-76
2023/11/10 05:16:29;;;;;;;11.50;8.23;;;;;;;;;;2075225;28;20017;-76
2023/11/10 05:17:49;;;;;;;10.48;9.38;;;;;;;;;;2075816;28;20025;-77
2023/11/10 05:19:08;;;;;;;16.17;9.13;;;;;;;;;;2075139;28;20029;-77
2023/11/10 05:20:31;;;;;;;12.07;8.88;;;;;;;;;;2074591;28;20029;-77
2023/11/10 05:21:50;;;;;;;12.32;9.70;;;;;;;;;;2077661;28;20037;-77
2023/11/10 05:23:09;;;;;;;14.38;9.52;;;;;;;;;;2078860;28;20026;-77
2023/11/10 05:24:29;;;;;;;12.57;9.68;;;;;;;;;;2076602;28;20022;-78
2023/11/10 05:25:49;;;;;;;14.55;10.13;;;;;;;;;;2075841;28;20017;-77
2023/11/10 05:27:08;;;;;;;16.27;10.35;;;;;;;;;;2078907;28;20021;-77
2023/11/10 05:28:29;;;;;;;16.35;10.20;;;;;;;;;;2079714;28;20021;-78
2023/11/10 05:29:47;;;;;;;14.55;10.02;;;;;;;;;;2077260;28;20030;-77
2023/11/10 05:31:06;;;;;;;15.25;10.15;;;;;;;;;;2079686;28;20405;-77
2023/11/10 05:32:26;;;;;;;14.90;10.23;;;;;;;;;;2076269;28;20029;-78
2023/11/10 05:33:45;;;;;;;15.48;10.32;;;;;;;;;;2072563;28;20084;-78
2023/11/10 05:35:04;;;;;;;18.85;10.85;;;;;;;;;;2077739;28;20482;-78
2023/11/10 05:36:24;;;;;;;21.20;10.85;;;;;;;;;;2073789;28;20033;-78
2023/11/10 05:37:43;;;;;;;18.65;11.15;;;;;;;;;;2076461;28;20077;-79
2023/11/10 05:39:03;;;;;;;16.30;10.98;;;;;;;;;;2077689;28;20696;-79
2023/11/10 05:40:24;;;;;;;24.60;11.73;;;;;;;;;;2078824;28;20437;-77
2023/11/10 05:41:44;;;;;;;20.73;11.27;;;;;;;;;;2078656;28;20471;-77
2023/11/10 05:43:03;;;;;;;22.95;11.07;;;;;;;;;;2079686;28;20037;-78
2023/11/10 05:44:22;;;;;;;21.40;11.65;;;;;;;;;;2080998;28;20108;-79
2023/11/10 05:45:41;;;;;;;37.47;20.85;;;;;;;;;;2079821;28;20453;-81
2023/11/10 05:47:00;;;;;;;26.67;13.95;;;;;;;;;;2079630;28;20398;-78
2023/11/10 05:48:19;;;;;;;23.25;12.70;;;;;;;;;;2079252;28;20029;-78
2023/11/10 05:49:39;;;;;;;21.73;11.98;;;;;;;;;;2077165;28;20017;-78
2023/11/10 05:50:57;;;;;;;26.30;12.50;;;;;;;;;;2077762;28;20033;-77
2023/11/10 05:52:16;;;;;;;29.30;12.88;;;;;;;;;;2079924;28;20022;-77
2023/11/10 05:53:35;;;;;;;27.75;13.13;;;;;;;;;;2078136;28;20104;-78
2023/11/10 05:54:54;;;;;;;30.08;12.98;;;;;;;;;;2079520;28;20112;-78
2023/11/10 05:56:13;;;;;;;25.30;13.10;;;;;;;;;;2077823;28;20022;-78
2023/11/10 05:57:33;;;;;;;25.27;13.63;;;;;;;;;;2079947;28;20152;-78
2023/11/10 05:58:52;;;;;;;23.88;13.55;;;;;;;;;;2080292;28;20121;-79
2023/11/10 06:00:11;;;;;;;28.33;13.50;;;;;;;;;;2075918;28;20018;-78
2023/11/10 06:01:34;;;;;;;33.03;13.75;;;;;;;;;;2075821;28;20121;-78
2023/11/10 06:02:55;;;;;;;24.08;13.80;;;;;;;;;;2077784;28;20026;-77
2023/11/10 06:04:15;;;;;;;28.35;13.65;;;;;;;;;;2079944;28;20026;-78
2023/11/10 06:05:34;;;;;;;26.63;13.32;;;;;;;;;;2075901;28;20049;-79
2023/11/10 06:06:53;;;;;;;30.33;14.35;;;;;;;;;;2080142;28;20029;-77
2023/11/10 06:08:15;;;;;;;28.23;14.30;;;;;;;;;;2076977;28;20021;-78
2023/11/10 06:09:34;;;;;;;27.50;13.98;;;;;;;;;;2080560;28;20034;-78
2023/11/10 06:10:53;;;;;;;29.80;14.00;;;;;;;;;;2077695;28;20418;-79
2023/11/10 06:12:13;;;;;;;25.98;13.32;;;;;;;;;;2076286;28;20041;-79
2023/11/10 06:13:33;;;;;;;29.48;13.43;;;;;;;;;;2075846;28;20116;-78
2023/11/10 06:14:52;;;;;;;26.02;13.90;;;;;;;;;;2074514;28;20034;-80
2023/11/10 06:16:12;;;;;;;28.73;13.90;;;;;;;;;;2078292;28;20030;-78
2023/11/10 06:17:31;;;;;;;25.27;13.52;;;;;;;;;;2077023;28;20112;-78
2023/11/10 06:18:51;;;;;;;31.05;13.82;;;;;;;;;;2080039;28;20454;-78
2023/11/10 06:20:10;;;;;;;28.08;13.60;;;;;;;;;;2076901;28;20025;-78
2023/11/10 06:21:29;;;;;;;29.25;13.68;;;;;;;;;;2077411;28;20505;-77
2023/11/10 06:22:48;;;;;;;29.52;13.50;;;;;;;;;;2076977;28;20088;-77
2023/11/10 06:24:08;;;;;;;26.00;13.40;;;;;;;;;;2088513;28;20026;-78
2023/11/10 06:25:28;;;;;;;24.90;13.13;;;;;;;;;;2088054;28;20038;-79
2023/11/10 06:26:47;;;;;;;25.05;12.90;;;;;;;;;;2084315;28;20089;-79
2023/11/10 06:28:06;;;;;;;28.83;14.13;;;;;;;;;;2084073;28;20030;-78
2023/11/10 06:29:26;;;;;;;24.17;13.63;;;;;;;;;;2080676;28;20037;-79
2023/11/10 06:30:44;;;;;;;25.25;13.63;;;;;;;;;;2080521;28;20018;-77
2023/11/10 06:32:04;;;;;;;28.42;13.32;;;;;;;;;;2077966;28;20053;-78
2023/11/10 06:33:26;;;;;;;27.85;13.90;;;;;;;;;;2076776;28;20034;-78
2023/11/10 06:34:45;;;;;;;29.30;12.73;;;;;;;;;;2082076;28;20030;-79
2023/11/10 06:36:06;;;;;;;30.88;14.07;;;;;;;;;;2085250;28;20034;-80
2023/11/10 06:37:25;;;;;;;31.45;14.32;;;;;;;;;;2086967;28;20033;-79
2023/11/10 06:38:45;;;;;;;28.67;13.25;;;;;;;;;;2083238;28;20033;-79
2023/11/10 06:40:04;;;;;;;35.97;14.18;;;;;;;;;;2080878;28;20034;-80
2023/11/10 06:41:25;;;;;;;26.00;13.63;;;;;;;;;;2080330;28;20112;-80
2023/11/10 06:42:44;;;;;;;27.27;12.27;;;;;;;;;;2078455;28;20037;-80
2023/11/10 06:44:04;;;;;;;33.70;14.20;;;;;;;;;;2080125;28;20041;-79
2023/11/10 06:45:23;;;;;;;28.30;13.70;;;;;;;;;;2079823;28;20026;-80
2023/11/10 06:46:42;;;;;;;32.95;14.32;;;;;;;;;;2078755;28;20037;-79
2023/11/10 06:48:03;;;;;;;32.90;14.35;;;;;;;;;;2072986;28;20406;-79
2023/11/10 06:49:22;;;;;;;33.83;13.85;;;;;;;;;;2076141;28;20460;-80
2023/11/10 06:50:41;;;;;;;28.23;13.88;;;;;;;;;;2078765;28;20033;-79
2023/11/10 06:52:00;;;;;;;38.15;14.25;;;;;;;;;;2078599;28;20037;-79
2023/11/10 06:53:19;;;;;;;34.92;14.25;;;;;;;;;;2079059;28;20058;-80
2023/11/10 06:54:39;;;;;;;30.65;13.80;;;;;;;;;;2076187;28;20061;-79
2023/11/10 06:55:59;;;;;;;27.20;13.20;;;;;;;;;;2076684;28;20053;-80
2023/11/10 06:57:17;;;;;;;33.78;14.25;;;;;;;;;;2079100;28;20029;-80
2023/11/10 06:58:36;;;;;;;32.78;13.80;;;;;;;;;;2079694;28;20033;-80
2023/11/10 06:59:56;;;;;;;36.22;14.43;;;;;;;;;;2077677;28;20040;-79
2023/11/10 07:01:17;;;;;;;36.47;14.23;;;;;;;;;;2077419;28;20058;-80
2023/11/10 07:02:36;;;;;;;30.88;13.75;;;;;;;;;;2076429;28;20479;-80
2023/11/10 07:03:55;;;;;;;34.40;14.70;;;;;;;;;;2084632;28;20053;-80
2023/11/10 07:05:15;;;;;;;33.60;13.10;;;;;;;;;;2078784;28;20514;-80
2023/11/10 07:06:34;;;;;;;32.58;14.52;;;;;;;;;;2076325;28;20033;-79
2023/11/10 07:07:53;;;;;;;33.05;14.32;;;;;;;;;;2076890;28;20021;-80
2023/11/10 07:09:12;;;;;;;32.67;13.23;;;;;;;;;;2075323;28;20066;-79
2023/11/10 07:10:32;;;;;;;39.85;13.98;;;;;;;;;;2074048;28;20033;-80
2023/11/10 07:11:51;;;;;;;30.85;13.18;;;;;;;;;;2079093;28;20021;-80
2023/11/10 07:13:10;;;;;;;32.90;13.82;;;;;;;;;;2073449;28;20037;-80
2023/11/10 07:14:32;;;;;;;28.80;13.40;;;;;;;;;;2079648;28;20033;-80
2023/11/10 07:15:51;;;;;;;28.17;12.32;;;;;;;;;;2078704;28;20034;-80
2023/11/10 07:17:15;;;;;;;33.13;13.02;;;;;;;;;;2080187;28;20029;-79
2023/11/10 07:18:34;;;;;;;;;;;;;;;;;;2078231;28;20025;-79
2023/11/10 07:19:53;;;;;;;34.80;12.63;;;;;;;;;;2076508;28;19906;-80
2023/11/10 07:21:13;;;;;;;33.10;13.27;;;;;;;;;;2077667;28;20021;-79
2023/11/10 07:22:32;;;;;;;34.63;13.65;;;;;;;;;;2077045;28;20030;-79
2023/11/10 07:23:51;;;;;;;36.17;13.30;;;;;;;;;;2078533;28;20029;-79
2023/11/10 07:25:11;;;;;;;36.85;13.60;;;;;;;;;;2077416;28;20017;-79
2023/11/10 07:26:30;;;;;;;32.33;13.13;;;;;;;;;;2079624;28;20033;-78
2023/11/10 07:27:49;;;;;;;32.28;12.27;;;;;;;;;;2078077;28;20113;-79
2023/11/10 07:29:08;;;;;;;28.00;11.57;;;;;;;;;;2072869;28;20036;-79
2023/11/10 07:30:28;;;;;;;26.70;11.60;;;;;;;;;;2077223;28;20081;-79
2023/11/10 07:31:48;;;;;;;28.90;11.20;;;;;;;;;;2076683;28;20108;-79
2023/11/10 07:33:08;;;;;;;27.63;12.30;;;;;;;;;;2072236;28;20029;-79
2023/11/10 07:34:27;;;;;;;27.38;11.05;;;;;;;;;;2076679;28;20044;-80
2023/11/10 07:35:47;;;;;;;26.55;11.15;;;;;;;;;;2073362;28;20034;-78
2023/11/10 07:37:06;;;;;;;25.25;11.32;;;;;;;;;;2073496;28;20128;-78
2023/11/10 07:38:25;;;;;;;22.38;10.45;;;;;;;;;;2074692;28;20030;-79
2023/11/10 07:39:45;;;;;;;23.90;10.43;;;;;;;;;;2074501;28;20034;-79
2023/11/10 07:41:05;;;;;;;29.52;11.15;;;;;;;;;;2075803;28;20024;-78
2023/11/10 07:42:24;;;;;;;25.63;10.85;;;;;;;;;;2078673;28;20018;-78
2023/11/10 07:43:44;;;;;;;27.13;11.25;;;;;;;;;;2076671;28;20037;-78
2023/11/10 07:45:04;;;;;;;23.20;10.68;;;;;;;;;;2073681;28;20057;-78
2023/11/10 07:46:23;;;;;;;30.05;11.70;;;;;;;;;;2074306;28;20042;-79
2023/11/10 07:47:42;;;;;;;29.30;11.38;;;;;;;;;;2079021;28;20100;-78
2023/11/10 07:49:02;;;;;;;28.13;11.43;;;;;;;;;;2078245;28;20502;-80
2023/11/10 07:50:21;;;;;;;25.88;10.43;;;;;;;;;;2078713;28;20030;-79
2023/11/10 07:51:40;;;;;;;27.20;11.25;;;;;;;;;;2084985;28;20033;-80